createdAt,value
2022-08-20T00:01:52.453Z,8.57
2022-08-20T00:04:19.893Z,8.93
2022-08-20T00:06:48.541Z,9.13
2022-08-20T00:09:18.516Z,9.65
2022-08-20T00:11:48.920Z,9.75
2022-08-20T00:14:16.231Z,8.77
2022-08-20T00:16:47.865Z,8.93
2022-08-20T00:19:15.911Z,8.73
2022-08-20T00:21:48.270Z,8.88
2022-08-20T00:24:18.303Z,8.93
2022-08-20T00:26:52.429Z,9.15
2022-08-20T00:29:20.702Z,10.00
2022-08-20T00:31:50.496Z,8.70
2022-08-20T00:34:17.778Z,8.82
2022-08-20T00:39:15.961Z,8.05
2022-08-20T00:41:43.133Z,8.40
2022-08-20T00:44:18.561Z,7.88
2022-08-20T00:46:46.718Z,8.85
2022-08-20T00:49:25.751Z,9.15
2022-08-20T00:52:05.284Z,8.48
2022-08-20T00:54:45.772Z,10.23
2022-08-20T00:57:23.191Z,9.38
2022-08-20T00:59:53.776Z,10.05
2022-08-20T01:02:35.801Z,10.05
2022-08-20T01:05:05.438Z,10.10
2022-08-20T01:07:34.892Z,10.13
2022-08-20T01:10:15.485Z,9.57
2022-08-20T01:13:14.681Z,10.57
2022-08-20T01:16:00.069Z,9.68
2022-08-20T01:18:34.768Z,11.30
2022-08-20T01:21:16.520Z,11.45
2022-08-20T01:24:11.787Z,11.68
2022-08-20T01:26:51.569Z,11.35
2022-08-20T01:29:28.149Z,11.15
2022-08-20T01:32:01.496Z,11.93
2022-08-20T01:34:29.246Z,12.80
2022-08-20T01:36:58.124Z,14.15
2022-08-20T01:39:39.228Z,12.18
2022-08-20T01:42:36.323Z,13.93
2022-08-20T01:45:05.756Z,13.20
2022-08-20T01:47:38.479Z,13.38
2022-08-20T01:50:23.217Z,12.35
2022-08-20T01:53:08.937Z,14.48
2022-08-20T01:55:39.259Z,15.30
2022-08-20T01:58:08.142Z,15.82
2022-08-20T02:00:35.862Z,14.93
2022-08-20T02:03:03.413Z,15.30
2022-08-20T02:05:33.258Z,14.27
2022-08-20T02:08:00.799Z,15.38
2022-08-20T02:10:31.702Z,14.55
2022-08-20T02:13:00.714Z,13.63
2022-08-20T02:15:35.027Z,13.57
2022-08-20T02:18:12.322Z,13.07
2022-08-20T02:20:40.589Z,12.68
2022-08-20T02:23:08.381Z,10.23
2022-08-20T02:25:37.613Z,7.78
2022-08-20T02:28:09.537Z,2.75
2022-08-20T02:30:40.646Z,2.05
2022-08-20T02:33:11.643Z,1.90
2022-08-20T02:35:40.475Z,1.35
2022-08-20T02:38:08.068Z,1.50
2022-08-20T02:40:35.997Z,1.10
2022-08-20T02:43:04.380Z,1.25
2022-08-20T02:45:43.512Z,1.30
2022-08-20T02:48:20.572Z,1.38
2022-08-20T02:50:51.546Z,1.40
2022-08-20T02:53:18.902Z,1.40
2022-08-20T02:55:46.017Z,1.50
2022-08-20T02:58:12.988Z,1.55
2022-08-20T03:00:40.760Z,1.67
2022-08-20T03:03:10.489Z,1.10
2022-08-20T03:05:39.676Z,1.35
2022-08-20T03:08:08.342Z,1.42
2022-08-20T03:10:37.071Z,1.88
2022-08-20T03:13:06.109Z,1.52
2022-08-20T03:15:34.523Z,1.73
2022-08-20T03:18:01.458Z,1.75
2022-08-20T03:20:28.999Z,1.38
2022-08-20T03:22:56.577Z,1.90
2022-08-20T03:25:24.724Z,1.50
2022-08-20T03:27:54.953Z,1.58
2022-08-20T03:30:24.229Z,1.70
2022-08-20T03:32:51.446Z,2.10
2022-08-20T03:37:48.457Z,3.25
2022-08-20T03:40:21.627Z,3.63
2022-08-20T03:42:48.681Z,4.22
2022-08-20T03:45:20.237Z,3.00
2022-08-20T03:47:48.620Z,2.78
2022-08-20T03:50:23.593Z,2.92
2022-08-20T03:52:52.328Z,3.03
2022-08-20T03:55:20.888Z,2.03
2022-08-20T03:57:53.561Z,2.17
2022-08-20T04:00:26.970Z,2.25
2022-08-20T04:02:58.285Z,2.45
2022-08-20T04:05:28.427Z,2.22
2022-08-20T04:07:57.139Z,3.10
2022-08-20T04:10:30.851Z,3.03
2022-08-20T04:12:57.931Z,3.42
2022-08-20T04:15:24.842Z,4.05
2022-08-20T04:17:52.692Z,4.28
2022-08-20T04:20:25.840Z,4.00
2022-08-20T04:22:58.794Z,3.53
2022-08-20T04:25:29.708Z,4.85
2022-08-20T04:28:02.372Z,4.35
2022-08-20T04:30:30.128Z,5.68
2022-08-20T04:32:57.173Z,6.80
2022-08-20T04:35:27.420Z,6.47
2022-08-20T04:38:07.032Z,7.82
2022-08-20T04:40:54.196Z,8.57
2022-08-20T04:43:24.008Z,7.65
2022-08-20T04:45:56.688Z,8.07
2022-08-20T04:48:25.351Z,8.27
2022-08-20T04:50:53.996Z,7.43
2022-08-20T04:53:26.007Z,9.73
2022-08-20T04:55:55.853Z,9.85
2022-08-20T04:58:33.521Z,10.05
2022-08-20T05:01:10.262Z,10.65
2022-08-20T05:03:41.560Z,11.27
2022-08-20T05:06:11.049Z,10.15
2022-08-20T05:08:39.364Z,9.55
2022-08-20T05:11:34.698Z,10.23
2022-08-20T05:13:56.870Z,9.90
2022-08-20T05:16:24.657Z,10.27
2022-08-20T05:18:52.676Z,10.25
2022-08-20T05:21:21.165Z,9.98
2022-08-20T05:23:49.303Z,10.35
2022-08-20T05:26:20.174Z,9.48
2022-08-20T05:28:58.347Z,10.18
2022-08-20T05:31:32.665Z,10.13
2022-08-20T05:34:10.669Z,10.40
2022-08-20T05:39:20.730Z,11.05
2022-08-20T05:41:49.887Z,12.02
2022-08-20T05:44:18.507Z,12.15
2022-08-20T05:46:46.929Z,11.90
2022-08-20T05:49:22.142Z,12.50
2022-08-20T05:51:51.394Z,12.88
2022-08-20T05:54:18.276Z,12.88
2022-08-20T05:56:45.377Z,11.23
2022-08-20T05:59:14.029Z,11.20
2022-08-20T06:01:42.815Z,11.40
2022-08-20T06:04:26.940Z,11.40
2022-08-20T06:07:03.788Z,11.52
2022-08-20T06:09:32.663Z,13.38
2022-08-20T06:12:02.360Z,13.95
2022-08-20T06:14:29.433Z,14.15
2022-08-20T06:17:03.026Z,13.13
2022-08-20T06:19:32.274Z,13.63
2022-08-20T06:22:00.545Z,14.73
2022-08-20T06:24:27.723Z,13.70
2022-08-20T06:27:03.834Z,12.80
2022-08-20T06:29:33.267Z,11.87
2022-08-20T06:32:01.680Z,11.43
2022-08-20T06:34:30.907Z,12.52
2022-08-20T06:36:59.077Z,13.82
2022-08-20T06:39:31.015Z,14.27
2022-08-20T06:41:58.866Z,12.82
2022-08-20T06:44:26.186Z,12.82
2022-08-20T06:46:54.505Z,11.90
2022-08-20T06:49:21.436Z,12.18
2022-08-20T06:51:50.084Z,11.48
2022-08-20T06:54:19.076Z,13.18
2022-08-20T06:56:48.049Z,12.18
2022-08-20T06:59:15.041Z,13.63
2022-08-20T07:01:41.785Z,14.43
2022-08-20T07:04:08.795Z,16.33
2022-08-20T07:06:36.158Z,13.93
2022-08-20T07:09:03.998Z,14.50
2022-08-20T07:11:31.149Z,14.80
2022-08-20T07:13:58.728Z,14.13
2022-08-20T07:16:26.393Z,13.25
2022-08-20T07:18:53.380Z,12.75
2022-08-20T07:21:20.329Z,13.77
2022-08-20T07:23:48.990Z,12.93
2022-08-20T07:30:55.928Z,12.15
2022-08-20T07:33:25.972Z,12.25
2022-08-20T07:35:59.202Z,10.82
2022-08-20T07:38:27.936Z,11.50
2022-08-20T07:41:01.316Z,12.98
2022-08-20T07:43:28.600Z,10.25
2022-08-20T07:46:00.647Z,9.77
2022-08-20T07:48:32.199Z,10.20
2022-08-20T07:51:04.149Z,12.32
2022-08-20T07:53:35.792Z,11.77
2022-08-20T07:56:08.809Z,13.23
2022-08-20T07:58:38.335Z,10.65
2022-08-20T08:01:06.481Z,10.95
2022-08-20T08:03:41.044Z,12.68
2022-08-20T08:06:30.438Z,11.55
2022-08-20T08:09:13.491Z,12.45
2022-08-20T08:11:47.279Z,10.70
2022-08-20T08:14:23.537Z,11.65
2022-08-20T08:16:59.853Z,10.98
2022-08-20T08:19:29.201Z,9.50
2022-08-20T08:21:57.383Z,7.70
2022-08-20T08:24:28.425Z,8.10
2022-08-20T08:26:55.714Z,9.00
2022-08-20T08:29:22.695Z,8.65
2022-08-20T08:31:49.543Z,11.20
2022-08-20T08:34:16.878Z,8.48
2022-08-20T08:36:44.257Z,10.13
2022-08-20T08:39:11.282Z,10.18
2022-08-20T08:41:48.008Z,10.80
2022-08-20T08:44:23.496Z,9.45
2022-08-20T08:46:56.626Z,11.23
2022-08-20T08:49:35.167Z,10.77
2022-08-20T08:52:28.793Z,10.52
2022-08-20T08:54:59.661Z,9.68
2022-08-20T08:57:27.481Z,9.75
2022-08-20T09:00:04.202Z,10.77
2022-08-20T09:02:34.016Z,9.05
2022-08-20T09:05:04.956Z,9.32
2022-08-20T09:07:33.645Z,9.38
2022-08-20T09:10:02.313Z,9.20
2022-08-20T09:12:29.715Z,9.05
2022-08-20T09:14:57.315Z,9.25
2022-08-20T09:17:25.083Z,8.38
2022-08-20T09:19:54.598Z,8.38
2022-08-20T09:22:25.911Z,7.43
2022-08-20T09:24:53.272Z,8.45
2022-08-20T09:27:20.303Z,9.38
2022-08-20T09:29:49.921Z,7.30
2022-08-20T09:32:22.297Z,7.65
2022-08-20T09:34:55.899Z,6.20
2022-08-20T09:37:24.951Z,7.35
2022-08-20T09:39:51.958Z,5.65
2022-08-20T09:44:48.325Z,5.72
2022-08-20T09:47:18.178Z,5.65
2022-08-20T09:49:48.280Z,6.60
2022-08-20T09:52:27.292Z,6.40
2022-08-20T09:55:04.469Z,5.90
2022-08-20T09:57:33.003Z,5.90
2022-08-20T10:00:08.773Z,5.18
2022-08-20T10:02:44.318Z,6.18
2022-08-20T10:05:12.434Z,6.18
2022-08-20T10:07:43.778Z,5.13
2022-08-20T10:10:13.536Z,5.70
2022-08-20T10:12:41.813Z,6.05
2022-08-20T10:15:09.572Z,4.60
2022-08-20T10:17:41.315Z,5.07
2022-08-20T10:20:11.056Z,3.88
2022-08-20T10:22:38.440Z,5.07
2022-08-20T10:25:06.673Z,4.90
2022-08-20T10:27:34.228Z,4.63
2022-08-20T10:30:01.560Z,4.95
2022-08-20T10:32:28.650Z,5.65
2022-08-20T10:34:58.857Z,5.53
2022-08-20T10:37:26.611Z,4.97
2022-08-20T10:39:54.709Z,4.05
2022-08-20T10:42:22.143Z,3.25
2022-08-20T10:44:49.168Z,4.53
2022-08-20T10:49:44.630Z,4.45
2022-08-20T10:52:11.802Z,2.70
2022-08-20T10:57:13.822Z,3.25
2022-08-20T10:59:42.640Z,4.38
2022-08-20T11:02:10.263Z,3.42
2022-08-20T11:04:43.071Z,2.10
2022-08-20T11:07:55.162Z,2.80
2022-08-20T11:10:18.820Z,3.05
2022-08-20T11:12:46.319Z,2.95
2022-08-20T11:15:14.813Z,3.20
2022-08-20T11:17:43.650Z,2.70
2022-08-20T11:20:13.667Z,2.20
2022-08-20T11:22:40.880Z,2.25
2022-08-20T11:25:09.211Z,3.15
2022-08-20T11:27:42.092Z,2.70
2022-08-20T11:30:12.181Z,2.53
2022-08-20T11:32:39.519Z,2.53
2022-08-20T11:35:40.597Z,2.35
2022-08-20T11:37:58.481Z,3.55
2022-08-20T11:40:26.715Z,3.30
2022-08-20T11:43:13.644Z,4.03
2022-08-20T11:45:41.667Z,3.22
2022-08-20T11:50:35.367Z,4.68
2022-08-20T11:53:02.761Z,5.22
2022-08-20T11:55:32.718Z,5.10
2022-08-20T11:58:00.945Z,5.82
2022-08-20T12:00:33.095Z,5.38
2022-08-20T12:03:02.279Z,5.85
2022-08-20T12:05:30.464Z,5.95
2022-08-20T12:08:00.721Z,5.95
2022-08-20T12:10:31.415Z,5.93
2022-08-20T12:12:59.211Z,5.28
2022-08-20T12:15:27.797Z,6.78
2022-08-20T12:17:56.280Z,6.65
2022-08-20T12:20:24.442Z,8.15
2022-08-20T12:22:53.037Z,10.35
2022-08-20T12:25:23.589Z,9.80
2022-08-20T12:27:51.469Z,11.38
2022-08-20T12:30:21.007Z,9.07
2022-08-20T12:32:48.737Z,9.45
2022-08-20T12:35:18.765Z,10.10
2022-08-20T12:37:47.251Z,8.48
2022-08-20T12:40:31.788Z,7.15
2022-08-20T12:43:01.240Z,12.18
2022-08-20T12:45:29.183Z,10.88
2022-08-20T12:48:02.515Z,10.35
2022-08-20T12:50:31.821Z,9.85
2022-08-20T12:52:59.331Z,14.13
2022-08-20T12:55:26.781Z,14.23
2022-08-20T12:57:59.265Z,12.95
2022-08-20T13:00:31.894Z,12.73
2022-08-20T13:03:01.853Z,7.20
2022-08-20T13:05:29.435Z,4.18
2022-08-20T13:07:57.147Z,5.88
2022-08-20T13:10:30.003Z,5.78
2022-08-20T13:12:58.113Z,5.55
2022-08-20T13:15:27.611Z,4.18
2022-08-20T13:17:57.727Z,3.67
2022-08-20T13:20:31.645Z,3.97
2022-08-20T13:23:04.314Z,3.92
2022-08-20T13:25:35.802Z,3.33
2022-08-20T13:28:04.611Z,3.97
2022-08-20T13:30:33.950Z,4.18
2022-08-20T13:33:02.045Z,4.10
2022-08-20T13:35:29.382Z,3.85
2022-08-20T13:40:23.690Z,3.20
2022-08-20T13:42:50.678Z,4.00
2022-08-20T13:45:18.135Z,4.07
2022-08-20T13:47:45.985Z,4.30
2022-08-20T13:50:17.483Z,3.53
2022-08-20T13:52:45.925Z,4.30
2022-08-20T13:55:16.150Z,4.13
2022-08-20T13:57:45.011Z,3.60
2022-08-20T14:00:16.738Z,3.70
2022-08-20T14:02:44.164Z,3.40
2022-08-20T14:05:12.094Z,4.43
2022-08-20T14:07:43.565Z,4.18
2022-08-20T14:10:24.257Z,3.75
2022-08-20T14:12:51.891Z,4.50
2022-08-20T14:15:20.311Z,4.40
2022-08-20T14:17:53.354Z,4.90
2022-08-20T14:20:23.308Z,3.38
2022-08-20T14:22:50.310Z,3.97
2022-08-20T14:25:19.719Z,3.95
2022-08-20T14:27:50.681Z,3.78
2022-08-20T14:30:24.455Z,3.53
2022-08-20T14:32:52.827Z,3.35
2022-08-20T14:35:20.792Z,3.85
2022-08-20T14:37:54.306Z,3.30
2022-08-20T14:40:22.848Z,3.40
2022-08-20T14:42:51.775Z,4.07
2022-08-20T14:45:20.434Z,4.50
2022-08-20T14:47:54.972Z,4.03
2022-08-20T14:50:31.351Z,3.60
2022-08-20T14:52:59.554Z,3.28
2022-08-20T14:55:30.467Z,3.15
2022-08-20T14:57:58.068Z,3.00
2022-08-20T15:00:28.362Z,2.72
2022-08-20T15:02:55.751Z,2.58
2022-08-20T15:05:22.867Z,2.85
2022-08-20T15:07:51.864Z,2.90
2022-08-20T15:10:27.604Z,2.97
2022-08-20T15:12:54.807Z,3.30
2022-08-20T15:17:52.662Z,2.85
2022-08-20T15:20:21.937Z,3.40
2022-08-20T15:22:50.028Z,2.80
2022-08-20T15:25:19.879Z,2.58
2022-08-20T15:27:47.349Z,2.42
2022-08-20T15:30:19.314Z,2.45
2022-08-20T15:32:49.273Z,2.70
2022-08-20T15:35:21.039Z,2.38
2022-08-20T15:37:50.361Z,2.33
2022-08-20T15:40:27.097Z,2.53
2022-08-20T15:42:56.176Z,2.50
2022-08-20T15:45:23.391Z,2.58
2022-08-20T15:48:03.401Z,2.08
2022-08-20T15:50:36.013Z,2.58
2022-08-20T15:53:10.276Z,2.28
2022-08-20T15:55:44.198Z,2.67
2022-08-20T15:58:22.672Z,2.80
2022-08-20T16:01:09.175Z,2.00
2022-08-20T16:04:17.963Z,2.63
2022-08-20T16:06:48.359Z,1.90
2022-08-20T16:09:39.989Z,2.25
2022-08-20T16:12:17.439Z,2.38
2022-08-20T16:14:47.446Z,3.00
2022-08-20T16:17:19.372Z,2.72
2022-08-20T16:20:01.917Z,3.00
2022-08-20T16:22:31.775Z,3.10
2022-08-20T16:24:59.288Z,2.67
2022-08-20T16:27:59.542Z,2.30
2022-08-20T16:30:46.946Z,2.70
2022-08-20T16:33:29.930Z,2.45
2022-08-20T16:36:23.554Z,2.38
2022-08-20T16:38:59.379Z,2.40
2022-08-20T16:41:35.547Z,2.22
2022-08-20T16:44:25.831Z,2.63
2022-08-20T16:47:14.266Z,2.50
2022-08-20T16:49:55.266Z,1.80
2022-08-20T16:52:22.827Z,2.20
2022-08-20T16:54:52.345Z,1.83
2022-08-20T16:57:20.037Z,1.70
2022-08-20T16:59:59.502Z,2.10
2022-08-20T17:02:27.276Z,2.00
2022-08-20T17:04:59.614Z,1.95
2022-08-20T17:07:50.117Z,1.73
2022-08-20T17:10:28.622Z,2.40
2022-08-20T17:12:59.858Z,2.00
2022-08-20T17:15:30.907Z,2.00
2022-08-20T17:18:03.326Z,2.00
2022-08-20T17:20:30.470Z,1.90
2022-08-20T17:23:11.903Z,1.70
2022-08-20T17:25:40.857Z,1.60
2022-08-20T17:28:19.811Z,1.50
2022-08-20T17:30:47.603Z,1.85
2022-08-20T17:33:35.101Z,1.95
2022-08-20T17:36:09.303Z,1.88
2022-08-20T17:38:52.638Z,1.95
2022-08-20T17:41:27.600Z,2.00
2022-08-20T17:44:00.690Z,2.35
2022-08-20T17:46:30.470Z,2.10
2022-08-20T17:49:00.061Z,2.10
2022-08-20T17:51:37.028Z,1.88
2022-08-20T17:54:28.488Z,2.00
2022-08-20T17:57:00.370Z,2.25
2022-08-20T18:00:01.026Z,2.65
2022-08-20T18:02:25.244Z,2.03
2022-08-20T18:04:54.251Z,2.60
2022-08-20T18:07:46.951Z,2.13
2022-08-20T18:10:38.743Z,2.30
2022-08-20T18:13:19.631Z,2.47
2022-08-20T18:15:54.023Z,2.17
2022-08-20T18:18:57.131Z,2.58
2022-08-20T18:21:47.362Z,1.70
2022-08-20T18:24:29.799Z,2.17
2022-08-20T18:27:08.734Z,2.17
2022-08-20T18:29:41.353Z,2.00
2022-08-20T18:32:24.446Z,1.80
2022-08-20T18:34:52.771Z,2.35
2022-08-20T18:37:25.435Z,2.00
2022-08-20T18:39:52.641Z,2.17
2022-08-20T18:42:35.917Z,2.15
2022-08-20T18:45:06.029Z,2.47
2022-08-20T18:47:33.007Z,2.53
2022-08-20T18:50:16.333Z,2.17
2022-08-20T18:53:13.533Z,2.28
2022-08-20T18:55:44.120Z,2.47
2022-08-20T18:58:28.189Z,2.38
2022-08-20T19:00:55.428Z,2.80
2022-08-20T19:06:20.226Z,2.60
2022-08-20T19:08:53.692Z,2.70
2022-08-20T19:11:30.906Z,2.53
2022-08-20T19:14:18.693Z,3.35
2022-08-20T19:17:03.647Z,4.18
2022-08-20T19:19:33.214Z,4.38
2022-08-20T19:22:01.880Z,4.70
2022-08-20T19:24:32.487Z,4.82
2022-08-20T19:27:06.741Z,3.40
2022-08-20T19:29:42.014Z,3.50
2022-08-20T19:32:16.680Z,4.53
2022-08-20T19:34:54.302Z,3.67
2022-08-20T19:37:35.571Z,4.47
2022-08-20T19:40:24.459Z,5.13
2022-08-20T19:42:58.043Z,4.60
2022-08-20T19:45:39.461Z,5.40
2022-08-20T19:48:11.821Z,7.43
2022-08-20T19:50:44.673Z,12.20
2022-08-20T19:53:31.093Z,12.00
2022-08-20T19:56:06.420Z,9.75
2022-08-20T19:58:34.533Z,6.57
2022-08-20T20:01:03.905Z,5.28
2022-08-20T20:03:37.819Z,5.10
2022-08-20T20:06:17.022Z,5.20
2022-08-20T20:08:51.772Z,4.88
2022-08-20T20:11:21.959Z,5.22
2022-08-20T20:13:48.999Z,4.70
2022-08-20T20:16:19.896Z,4.95
2022-08-20T20:19:03.824Z,5.00
2022-08-20T20:21:43.483Z,4.65
2022-08-20T20:24:19.804Z,4.45
2022-08-20T20:26:48.667Z,4.80
2022-08-20T20:29:35.973Z,3.92
2022-08-20T20:32:14.934Z,4.50
2022-08-20T20:34:54.922Z,4.35
2022-08-20T20:37:47.913Z,4.38
2022-08-20T20:40:27.722Z,3.63
2022-08-20T20:43:10.799Z,4.55
2022-08-20T20:45:44.811Z,3.88
2022-08-20T20:48:21.310Z,4.07
2022-08-20T20:50:51.134Z,4.13
2022-08-20T20:53:32.466Z,3.92
2022-08-20T20:56:29.022Z,4.45
2022-08-20T20:59:02.505Z,4.13
2022-08-20T21:01:48.200Z,4.38
2022-08-20T21:04:18.610Z,4.82
2022-08-20T21:06:45.957Z,4.13
2022-08-20T21:09:13.085Z,4.65
2022-08-20T21:11:40.122Z,4.72
2022-08-20T21:14:07.040Z,4.50
2022-08-20T21:16:34.081Z,4.32
2022-08-20T21:19:04.773Z,4.82
2022-08-20T21:21:31.900Z,4.05
2022-08-20T21:23:59.132Z,4.20
2022-08-20T21:26:28.042Z,4.65
2022-08-20T21:28:55.702Z,4.88
2022-08-20T21:31:26.178Z,5.05
2022-08-20T21:33:53.090Z,5.80
2022-08-20T21:36:19.859Z,4.95
2022-08-20T21:38:46.869Z,4.47
2022-08-20T21:41:14.727Z,4.90
2022-08-20T21:43:42.799Z,4.90
2022-08-20T21:46:12.750Z,5.72
2022-08-20T21:48:43.227Z,14.20
2022-08-20T21:51:13.239Z,14.63
2022-08-20T21:53:40.240Z,16.02
2022-08-20T21:56:08.004Z,13.10
2022-08-20T21:58:35.393Z,16.17
2022-08-20T22:01:05.506Z,16.63
2022-08-20T22:03:36.277Z,9.57
2022-08-20T22:06:09.060Z,7.57
2022-08-20T22:08:36.157Z,7.15
2022-08-20T22:11:05.273Z,9.00
2022-08-20T22:13:33.234Z,8.38
2022-08-20T22:16:07.515Z,5.75
2022-08-20T22:18:35.012Z,5.15
2022-08-20T22:23:29.240Z,5.78
2022-08-20T22:25:56.236Z,4.88
2022-08-20T22:28:23.633Z,4.90
2022-08-20T22:30:50.680Z,5.15
2022-08-20T22:33:22.154Z,5.22
2022-08-20T22:35:52.551Z,4.85
2022-08-20T22:38:20.437Z,4.78
2022-08-20T22:40:48.484Z,5.63
2022-08-20T22:43:16.086Z,5.15
2022-08-20T22:45:45.626Z,4.78
2022-08-20T22:48:16.120Z,4.50
2022-08-20T22:50:43.561Z,4.60
2022-08-20T22:53:11.727Z,4.07
2022-08-20T22:55:38.933Z,3.75
2022-08-20T22:58:06.283Z,4.35
2022-08-20T23:05:32.926Z,4.43
2022-08-20T23:08:00.598Z,4.30
2022-08-20T23:10:30.348Z,4.63
2022-08-20T23:12:58.484Z,4.60
2022-08-20T23:15:28.264Z,4.15
2022-08-20T23:18:00.518Z,4.43
2022-08-20T23:20:27.943Z,4.22
2022-08-20T23:22:55.881Z,4.07
2022-08-20T23:27:55.160Z,4.25
2022-08-20T23:30:23.703Z,4.25
2022-08-20T23:32:50.780Z,4.57
2022-08-20T23:35:18.539Z,4.10
2022-08-20T23:37:51.715Z,4.10
2022-08-20T23:40:27.997Z,4.43
2022-08-20T23:42:56.892Z,3.70
2022-08-20T23:45:24.416Z,4.15
2022-08-20T23:47:51.747Z,4.50
2022-08-20T23:50:22.099Z,3.50
2022-08-20T23:52:51.943Z,3.88
2022-08-20T23:55:19.764Z,4.03
2022-08-20T23:57:46.934Z,3.78
